Rocky Mount, VA

11:56 PM EST on February 26, 2015 (GMT -0500)
Doe Run | Change Station
CLOSE
Current Station
Personal Weather Station
Location: Rocky Mount, VA
Elevation: 1099 ft
Nearby Weather Stations
Active Advisory: Special Statement Active Notice: Local Storm Report

Elev 1099 ft 36.97 °N, 79.85 °W | Updated 11 seconds ago

Partly Cloudy
Partly Cloudy
27.3 °F
Feels Like 27 °F
N
0.0
Wind Variable Wind from West
Gusts 0.0 mph

Today
High -- | Low -- °F
--% Chance of Precip.
Yesterday
High -- | Low -- °F
Precip. -- in
6:54 AM 6:10 PM
Waxing Gibbous, 65% visible
Pressure 30.14 in
Visibility 10.0 miles
Clouds Mostly Cloudy 4400 ft
Windchill 27 °F
Dew Point 27 °F
Humidity 97%
Rainfall 0.22 in
Snow Depth Not available.
UV 0 out of 12
Pollen .70 out of 12
Air Quality Not available.
Flu Activity Not available.
METAR KROA 270354Z 31008KT 10SM BKN044 02/M06 A3011 RMK AO2 SLP205 T00171056

More Conditions Fewer Conditions

Pressure 30.14 in
Visibility 10.0 miles
Clouds Mostly Cloudy 4400 ft
Windchill 27 °F
Dew Point 27 °F
Humidity 97%
Rainfall 0.22 in
Snow Depth Not available.
UV 0 out of 12
Pollen .70 out of 12
Air Quality Not available.
Flu Activity Not available.
METAR KROA 270354Z 31008KT 10SM BKN044 02/M06 A3011 RMK AO2 SLP205 T00171056

More Conditions Fewer Conditions

10-Day Weather Forecast

Almanac

Astronomy

Feb. 26, 2015 Rise Set
Actual Time
Civil Twilight
Nautical Twilight
Astronomical Twilight
Moon
Length of Visible Light
Length of Day
Tomorrow will be .
, % of the Moon is Illuminated

Today's Extremes

State Highs State Lows

Community

WunderPhotos

Upload Photos

1,800,632 photos uploaded!

WunderBlogs® & News

Nearby

Air Quality

  Air Quality AQ Index Pollutant
Not available.

Snow Depth

Station Depth Elevation

Earthquake Activity

City Distance Mag. Time & Date
Minimum magnitude displayed is 2.5.

Coastal Water Temperatures

Place Temperature

Nearby Weather Stations

Special Statement
Statement as of 9:44 PM EST on February 26, 2015


... Black ice expected tonight...

Expect black ice along roads... sidewalks and parking lots
overnight... as temperatures drop into the teens and 20s.. caution
should be exercised while driving or walking as a wet looking
surface will more likely be icy.